sensor_id;sensor_type;location;lat;lon;timestamp;temperature;humidity
75010;DHT22;63564;46.840;18.336;2023-05-07T00:00:07;14.84;92.56
75010;DHT22;63564;46.840;18.336;2023-05-07T00:03:08;14.93;91.88
75010;DHT22;63564;46.840;18.336;2023-05-07T00:06:08;14.95;91.68
75010;DHT22;63564;46.840;18.336;2023-05-07T00:09:09;14.98;91.52
75010;DHT22;63564;46.840;18.336;2023-05-07T00:12:09;15.00;91.32
75010;DHT22;63564;46.840;18.336;2023-05-07T00:15:10;15.11;90.89
75010;DHT22;63564;46.840;18.336;2023-05-07T00:18:11;15.11;90.76
75010;DHT22;63564;46.840;18.336;2023-05-07T00:21:11;15.11;90.86
75010;DHT22;63564;46.840;18.336;2023-05-07T00:24:12;15.07;90.90
75010;DHT22;63564;46.840;18.336;2023-05-07T00:27:12;15.07;90.64
75010;DHT22;63564;46.840;18.336;2023-05-07T00:30:12;15.00;90.97
75010;DHT22;63564;46.840;18.336;2023-05-07T00:33:13;15.00;90.75
75010;DHT22;63564;46.840;18.336;2023-05-07T00:36:13;15.01;90.67
75010;DHT22;63564;46.840;18.336;2023-05-07T00:39:14;15.01;90.79
75010;DHT22;63564;46.840;18.336;2023-05-07T00:42:14;14.98;90.83
75010;DHT22;63564;46.840;18.336;2023-05-07T00:45:16;14.88;90.76
75010;DHT22;63564;46.840;18.336;2023-05-07T00:48:17;14.81;91.84
75010;DHT22;63564;46.840;18.336;2023-05-07T00:51:18;14.25;94.20
75010;DHT22;63564;46.840;18.336;2023-05-07T00:54:19;14.42;94.28
75010;DHT22;63564;46.840;18.336;2023-05-07T00:57:20;14.33;94.08
75010;DHT22;63564;46.840;18.336;2023-05-07T01:00:21;14.42;93.31
75010;DHT22;63564;46.840;18.336;2023-05-07T01:03:22;14.46;92.81
75010;DHT22;63564;46.840;18.336;2023-05-07T01:06:24;14.50;92.43
75010;DHT22;63564;46.840;18.336;2023-05-07T01:09:26;14.50;92.01
75010;DHT22;63564;46.840;18.336;2023-05-07T01:12:28;14.43;92.15
75010;DHT22;63564;46.840;18.336;2023-05-07T01:15:29;14.32;92.36
75010;DHT22;63564;46.840;18.336;2023-05-07T01:18:29;14.17;93.01
75010;DHT22;63564;46.840;18.336;2023-05-07T01:21:32;14.12;93.74
75010;DHT22;63564;46.840;18.336;2023-05-07T01:24:34;14.14;92.87
75010;DHT22;63564;46.840;18.336;2023-05-07T01:27:35;14.12;92.17
75010;DHT22;63564;46.840;18.336;2023-05-07T01:30:47;14.08;91.63
75010;DHT22;63564;46.840;18.336;2023-05-07T01:33:48;14.12;91.60
75010;DHT22;63564;46.840;18.336;2023-05-07T01:36:50;14.17;91.01
75010;DHT22;63564;46.840;18.336;2023-05-07T01:39:52;14.24;90.15
75010;DHT22;63564;46.840;18.336;2023-05-07T01:42:54;14.08;91.57
75010;DHT22;63564;46.840;18.336;2023-05-07T01:45:55;14.09;91.57
75010;DHT22;63564;46.840;18.336;2023-05-07T01:48:55;14.12;91.51
75010;DHT22;63564;46.840;18.336;2023-05-07T01:51:56;14.09;91.26
75010;DHT22;63564;46.840;18.336;2023-05-07T01:54:56;13.94;92.03
75010;DHT22;63564;46.840;18.336;2023-05-07T01:57:57;13.98;91.75
75010;DHT22;63564;46.840;18.336;2023-05-07T02:00:57;14.07;91.32
75010;DHT22;63564;46.840;18.336;2023-05-07T02:03:57;14.05;91.08
75010;DHT22;63564;46.840;18.336;2023-05-07T02:06:58;13.97;91.60
75010;DHT22;63564;46.840;18.336;2023-05-07T02:09:58;13.90;91.86
75010;DHT22;63564;46.840;18.336;2023-05-07T02:12:58;13.97;90.76
75010;DHT22;63564;46.840;18.336;2023-05-07T02:16:02;13.94;90.61
75010;DHT22;63564;46.840;18.336;2023-05-07T02:19:02;13.81;91.45
75010;DHT22;63564;46.840;18.336;2023-05-07T02:22:03;13.78;91.50
75010;DHT22;63564;46.840;18.336;2023-05-07T02:25:03;13.67;91.70
75010;DHT22;63564;46.840;18.336;2023-05-07T02:28:04;13.60;91.80
75010;DHT22;63564;46.840;18.336;2023-05-07T02:31:04;13.53;92.04
75010;DHT22;63564;46.840;18.336;2023-05-07T02:34:05;13.43;91.67
75010;DHT22;63564;46.840;18.336;2023-05-07T02:37:05;13.42;92.34
75010;DHT22;63564;46.840;18.336;2023-05-07T02:40:06;13.38;92.11
75010;DHT22;63564;46.840;18.336;2023-05-07T02:43:08;13.32;92.65
75010;DHT22;63564;46.840;18.336;2023-05-07T02:46:09;13.19;93.23
75010;DHT22;63564;46.840;18.336;2023-05-07T02:49:09;13.12;93.46
75010;DHT22;63564;46.840;18.336;2023-05-07T02:52:10;13.14;93.73
75010;DHT22;63564;46.840;18.336;2023-05-07T02:55:10;13.09;93.52
75010;DHT22;63564;46.840;18.336;2023-05-07T02:58:11;13.01;93.57
75010;DHT22;63564;46.840;18.336;2023-05-07T03:01:11;12.98;93.52
75010;DHT22;63564;46.840;18.336;2023-05-07T03:04:13;12.94;93.92
75010;DHT22;63564;46.840;18.336;2023-05-07T03:07:14;12.91;94.49
75010;DHT22;63564;46.840;18.336;2023-05-07T03:10:14;12.92;94.48
75010;DHT22;63564;46.840;18.336;2023-05-07T03:13:15;13.04;93.85
75010;DHT22;63564;46.840;18.336;2023-05-07T03:16:15;13.09;93.13
75010;DHT22;63564;46.840;18.336;2023-05-07T03:19:16;13.05;93.40
75010;DHT22;63564;46.840;18.336;2023-05-07T03:22:16;13.02;93.67
75010;DHT22;63564;46.840;18.336;2023-05-07T03:25:16;12.91;94.73
75010;DHT22;63564;46.840;18.336;2023-05-07T03:28:17;12.70;95.72
75010;DHT22;63564;46.840;18.336;2023-05-07T03:31:18;12.74;95.09
75010;DHT22;63564;46.840;18.336;2023-05-07T03:34:18;12.87;94.31
75010;DHT22;63564;46.840;18.336;2023-05-07T03:37:22;12.87;94.04
75010;DHT22;63564;46.840;18.336;2023-05-07T03:40:22;12.87;93.73
75010;DHT22;63564;46.840;18.336;2023-05-07T03:43:23;12.81;94.23
75010;DHT22;63564;46.840;18.336;2023-05-07T03:46:23;12.67;94.83
75010;DHT22;63564;46.840;18.336;2023-05-07T03:49:26;12.67;94.98
75010;DHT22;63564;46.840;18.336;2023-05-07T03:52:27;12.74;94.36
75010;DHT22;63564;46.840;18.336;2023-05-07T03:55:28;12.89;93.85
75010;DHT22;63564;46.840;18.336;2023-05-07T03:58:29;12.92;93.82
75010;DHT22;63564;46.840;18.336;2023-05-07T04:01:29;12.91;94.46
75010;DHT22;63564;46.840;18.336;2023-05-07T04:04:30;12.89;95.06
75010;DHT22;63564;46.840;18.336;2023-05-07T04:07:32;12.91;95.10
75010;DHT22;63564;46.840;18.336;2023-05-07T04:10:33;12.99;94.83
75010;DHT22;63564;46.840;18.336;2023-05-07T04:13:33;13.09;94.44
75010;DHT22;63564;46.840;18.336;2023-05-07T04:16:34;13.30;93.78
75010;DHT22;63564;46.840;18.336;2023-05-07T04:19:35;13.40;93.48
75010;DHT22;63564;46.840;18.336;2023-05-07T04:22:36;13.38;92.86
75010;DHT22;63564;46.840;18.336;2023-05-07T04:25:36;13.11;94.40
75010;DHT22;63564;46.840;18.336;2023-05-07T04:28:38;13.09;94.85
75010;DHT22;63564;46.840;18.336;2023-05-07T04:31:39;13.26;94.07
75010;DHT22;63564;46.840;18.336;2023-05-07T04:34:40;13.40;93.72
75010;DHT22;63564;46.840;18.336;2023-05-07T04:37:40;13.56;93.25
75010;DHT22;63564;46.840;18.336;2023-05-07T04:40:40;13.75;92.52
75010;DHT22;63564;46.840;18.336;2023-05-07T04:43:41;13.94;91.63
75010;DHT22;63564;46.840;18.336;2023-05-07T04:46:41;14.30;90.37
75010;DHT22;63564;46.840;18.336;2023-05-07T04:49:42;14.49;89.94
75010;DHT22;63564;46.840;18.336;2023-05-07T04:52:42;14.60;89.30
75010;DHT22;63564;46.840;18.336;2023-05-07T04:55:43;14.66;88.55
75010;DHT22;63564;46.840;18.336;2023-05-07T04:58:45;14.65;88.95
75010;DHT22;63564;46.840;18.336;2023-05-07T05:01:45;14.73;88.78
75010;DHT22;63564;46.840;18.336;2023-05-07T05:04:45;14.72;89.19
75010;DHT22;63564;46.840;18.336;2023-05-07T05:07:46;14.70;89.40
75010;DHT22;63564;46.840;18.336;2023-05-07T05:10:46;14.69;89.60
75010;DHT22;63564;46.840;18.336;2023-05-07T05:13:48;14.69;89.69
75010;DHT22;63564;46.840;18.336;2023-05-07T05:16:49;14.70;89.38
75010;DHT22;63564;46.840;18.336;2023-05-07T05:19:49;14.76;89.22
75010;DHT22;63564;46.840;18.336;2023-05-07T05:22:50;14.86;88.72
75010;DHT22;63564;46.840;18.336;2023-05-07T05:25:55;15.03;88.42
75010;DHT22;63564;46.840;18.336;2023-05-07T05:28:56;15.20;88.26
75010;DHT22;63564;46.840;18.336;2023-05-07T05:31:57;15.35;87.63
75010;DHT22;63564;46.840;18.336;2023-05-07T05:34:57;15.45;86.90
75010;DHT22;63564;46.840;18.336;2023-05-07T05:37:58;15.53;86.71
75010;DHT22;63564;46.840;18.336;2023-05-07T05:40:58;15.69;86.31
75010;DHT22;63564;46.840;18.336;2023-05-07T05:43:58;15.86;85.93
75010;DHT22;63564;46.840;18.336;2023-05-07T05:46:59;16.04;85.35
75010;DHT22;63564;46.840;18.336;2023-05-07T05:49:59;16.24;84.84
75010;DHT22;63564;46.840;18.336;2023-05-07T05:53:00;16.47;84.74
75010;DHT22;63564;46.840;18.336;2023-05-07T05:56:00;16.21;85.10
75010;DHT22;63564;46.840;18.336;2023-05-07T05:59:01;16.20;85.82
75010;DHT22;63564;46.840;18.336;2023-05-07T06:02:01;16.27;85.96
75010;DHT22;63564;46.840;18.336;2023-05-07T06:05:01;16.13;86.01
75010;DHT22;63564;46.840;18.336;2023-05-07T06:08:02;16.16;86.27
75010;DHT22;63564;46.840;18.336;2023-05-07T06:11:02;16.29;85.58
75010;DHT22;63564;46.840;18.336;2023-05-07T06:14:03;16.22;85.70
75010;DHT22;63564;46.840;18.336;2023-05-07T06:17:03;16.47;85.37
75010;DHT22;63564;46.840;18.336;2023-05-07T06:20:04;16.61;84.96
75010;DHT22;63564;46.840;18.336;2023-05-07T06:23:05;16.71;84.29
75010;DHT22;63564;46.840;18.336;2023-05-07T06:26:06;16.73;85.60
75010;DHT22;63564;46.840;18.336;2023-05-07T06:29:06;16.58;84.17
75010;DHT22;63564;46.840;18.336;2023-05-07T06:32:11;16.69;83.77
75010;DHT22;63564;46.840;18.336;2023-05-07T06:35:12;16.86;84.22
75010;DHT22;63564;46.840;18.336;2023-05-07T06:38:12;17.03;83.27
75010;DHT22;63564;46.840;18.336;2023-05-07T06:41:12;17.04;83.74
75010;DHT22;63564;46.840;18.336;2023-05-07T06:44:13;17.26;81.46
75010;DHT22;63564;46.840;18.336;2023-05-07T06:47:13;17.24;81.82
75010;DHT22;63564;46.840;18.336;2023-05-07T06:50:14;17.09;83.80
75010;DHT22;63564;46.840;18.336;2023-05-07T06:53:16;17.47;81.63
75010;DHT22;63564;46.840;18.336;2023-05-07T06:56:17;17.54;81.05
75010;DHT22;63564;46.840;18.336;2023-05-07T06:59:17;17.58;81.07
75010;DHT22;63564;46.840;18.336;2023-05-07T07:02:17;17.72;80.53
75010;DHT22;63564;46.840;18.336;2023-05-07T07:05:18;17.47;82.60
75010;DHT22;63564;46.840;18.336;2023-05-07T07:08:18;17.57;84.69
75010;DHT22;63564;46.840;18.336;2023-05-07T07:11:21;17.75;82.73
75010;DHT22;63564;46.840;18.336;2023-05-07T07:14:21;17.88;81.97
75010;DHT22;63564;46.840;18.336;2023-05-07T07:17:21;17.88;83.00
75010;DHT22;63564;46.840;18.336;2023-05-07T07:20:22;18.16;79.84
75010;DHT22;63564;46.840;18.336;2023-05-07T07:23:23;18.00;82.25
75010;DHT22;63564;46.840;18.336;2023-05-07T07:26:23;18.07;82.60
75010;DHT22;63564;46.840;18.336;2023-05-07T07:29:24;17.83;83.49
75010;DHT22;63564;46.840;18.336;2023-05-07T07:32:26;17.61;84.35
75010;DHT22;63564;46.840;18.336;2023-05-07T07:35:27;18.05;81.81
75010;DHT22;63564;46.840;18.336;2023-05-07T07:38:27;18.05;83.07
75010;DHT22;63564;46.840;18.336;2023-05-07T07:41:28;18.24;80.48
75010;DHT22;63564;46.840;18.336;2023-05-07T07:44:28;18.37;79.68
75010;DHT22;63564;46.840;18.336;2023-05-07T07:47:28;18.34;80.77
75010;DHT22;63564;46.840;18.336;2023-05-07T07:50:29;18.65;79.80
75010;DHT22;63564;46.840;18.336;2023-05-07T07:53:29;18.76;79.76
75010;DHT22;63564;46.840;18.336;2023-05-07T07:56:32;18.78;76.81
75010;DHT22;63564;46.840;18.336;2023-05-07T07:59:33;18.37;78.88
75010;DHT22;63564;46.840;18.336;2023-05-07T08:02:34;18.23;80.25
75010;DHT22;63564;46.840;18.336;2023-05-07T08:05:34;18.17;81.57
75010;DHT22;63564;46.840;18.336;2023-05-07T08:08:35;18.78;76.02
75010;DHT22;63564;46.840;18.336;2023-05-07T08:11:35;18.98;76.07
75010;DHT22;63564;46.840;18.336;2023-05-07T08:14:36;19.09;77.01
75010;DHT22;63564;46.840;18.336;2023-05-07T08:17:37;19.22;76.15
75010;DHT22;63564;46.840;18.336;2023-05-07T08:20:37;19.06;75.13
75010;DHT22;63564;46.840;18.336;2023-05-07T08:23:39;19.08;76.64
75010;DHT22;63564;46.840;18.336;2023-05-07T08:26:40;19.51;74.35
75010;DHT22;63564;46.840;18.336;2023-05-07T08:29:40;19.58;74.89
75010;DHT22;63564;46.840;18.336;2023-05-07T08:32:41;19.63;76.34
75010;DHT22;63564;46.840;18.336;2023-05-07T08:35:41;20.08;72.36
75010;DHT22;63564;46.840;18.336;2023-05-07T08:38:41;19.78;75.04
75010;DHT22;63564;46.840;18.336;2023-05-07T08:41:45;19.81;76.38
75010;DHT22;63564;46.840;18.336;2023-05-07T08:44:46;19.98;74.04
75010;DHT22;63564;46.840;18.336;2023-05-07T08:47:52;20.13;70.65
75010;DHT22;63564;46.840;18.336;2023-05-07T08:50:53;20.37;70.40
75010;DHT22;63564;46.840;18.336;2023-05-07T08:53:53;20.05;73.78
75010;DHT22;63564;46.840;18.336;2023-05-07T08:56:54;19.91;71.42
75010;DHT22;63564;46.840;18.336;2023-05-07T08:59:54;19.81;75.49
75010;DHT22;63564;46.840;18.336;2023-05-07T09:02:55;20.01;72.92
75010;DHT22;63564;46.840;18.336;2023-05-07T09:05:56;20.32;70.28
75010;DHT22;63564;46.840;18.336;2023-05-07T09:08:56;20.43;70.84
75010;DHT22;63564;46.840;18.336;2023-05-07T09:11:58;20.11;69.25
75010;DHT22;63564;46.840;18.336;2023-05-07T09:14:59;20.33;71.70
75010;DHT22;63564;46.840;18.336;2023-05-07T09:18:00;20.23;68.32
75010;DHT22;63564;46.840;18.336;2023-05-07T09:21:03;20.37;66.29
75010;DHT22;63564;46.840;18.336;2023-05-07T09:24:04;20.74;68.69
75010;DHT22;63564;46.840;18.336;2023-05-07T09:27:05;21.07;68.99
75010;DHT22;63564;46.840;18.336;2023-05-07T09:30:06;20.99;67.52
75010;DHT22;63564;46.840;18.336;2023-05-07T09:33:07;21.11;70.56
75010;DHT22;63564;46.840;18.336;2023-05-07T09:36:09;21.19;68.99
75010;DHT22;63564;46.840;18.336;2023-05-07T09:39:10;20.94;69.09
75010;DHT22;63564;46.840;18.336;2023-05-07T09:42:10;21.22;70.14
75010;DHT22;63564;46.840;18.336;2023-05-07T09:45:27;21.46;66.81
75010;DHT22;63564;46.840;18.336;2023-05-07T09:48:29;21.29;65.47
75010;DHT22;63564;46.840;18.336;2023-05-07T09:51:47;21.67;64.98
75010;DHT22;63564;46.840;18.336;2023-05-07T09:54:48;22.02;61.30
75010;DHT22;63564;46.840;18.336;2023-05-07T09:57:53;22.20;61.49
75010;DHT22;63564;46.840;18.336;2023-05-07T10:00:54;21.97;62.71
75010;DHT22;63564;46.840;18.336;2023-05-07T10:03:57;22.08;62.55
75010;DHT22;63564;46.840;18.336;2023-05-07T10:06:58;22.22;60.45
75010;DHT22;63564;46.840;18.336;2023-05-07T10:09:59;22.32;59.80
75010;DHT22;63564;46.840;18.336;2023-05-07T10:13:01;22.31;60.26
75010;DHT22;63564;46.840;18.336;2023-05-07T10:16:05;22.44;60.22
75010;DHT22;63564;46.840;18.336;2023-05-07T10:19:07;22.67;57.24
75010;DHT22;63564;46.840;18.336;2023-05-07T10:22:10;22.60;58.02
75010;DHT22;63564;46.840;18.336;2023-05-07T10:25:18;22.60;57.43
75010;DHT22;63564;46.840;18.336;2023-05-07T10:28:19;22.89;61.25
75010;DHT22;63564;46.840;18.336;2023-05-07T10:31:58;22.56;59.41
75010;DHT22;63564;46.840;18.336;2023-05-07T10:35:03;22.87;58.69
75010;DHT22;63564;46.840;18.336;2023-05-07T10:38:05;22.79;60.72
75010;DHT22;63564;46.840;18.336;2023-05-07T10:41:05;23.13;56.69
75010;DHT22;63564;46.840;18.336;2023-05-07T10:44:05;23.25;60.41
75010;DHT22;63564;46.840;18.336;2023-05-07T10:47:10;23.24;57.99
75010;DHT22;63564;46.840;18.336;2023-05-07T11:06:13;23.10;58.17
75010;DHT22;63564;46.840;18.336;2023-05-07T11:09:14;23.50;56.72
75010;DHT22;63564;46.840;18.336;2023-05-07T11:12:14;22.80;57.44
75010;DHT22;63564;46.840;18.336;2023-05-07T11:15:15;22.99;57.44
75010;DHT22;63564;46.840;18.336;2023-05-07T11:18:54;22.76;54.16
75010;DHT22;63564;46.840;18.336;2023-05-07T11:21:54;22.87;54.67
75010;DHT22;63564;46.840;18.336;2023-05-07T11:24:55;23.13;55.33
75010;DHT22;63564;46.840;18.336;2023-05-07T11:27:56;23.70;53.25
75010;DHT22;63564;46.840;18.336;2023-05-07T11:30:57;24.05;51.02
75010;DHT22;63564;46.840;18.336;2023-05-07T11:33:58;23.32;54.45
75010;DHT22;63564;46.840;18.336;2023-05-07T11:36:59;23.78;54.68
75010;DHT22;63564;46.840;18.336;2023-05-07T11:40:08;24.06;51.33
75010;DHT22;63564;46.840;18.336;2023-05-07T11:43:10;23.88;51.45
75010;DHT22;63564;46.840;18.336;2023-05-07T11:46:12;23.32;54.02
75010;DHT22;63564;46.840;18.336;2023-05-07T11:49:14;23.88;55.35
75010;DHT22;63564;46.840;18.336;2023-05-07T11:52:16;24.12;52.64
75010;DHT22;63564;46.840;18.336;2023-05-07T11:55:18;23.66;53.54
75010;DHT22;63564;46.840;18.336;2023-05-07T11:58:23;23.58;52.29
75010;DHT22;63564;46.840;18.336;2023-05-07T12:01:24;23.72;53.60
75010;DHT22;63564;46.840;18.336;2023-05-07T12:04:24;23.55;55.16
75010;DHT22;63564;46.840;18.336;2023-05-07T12:07:25;23.04;55.67
75010;DHT22;63564;46.840;18.336;2023-05-07T12:10:25;23.76;55.28
75010;DHT22;63564;46.840;18.336;2023-05-07T12:13:26;24.17;50.95
75010;DHT22;63564;46.840;18.336;2023-05-07T12:16:27;24.30;50.83
75010;DHT22;63564;46.840;18.336;2023-05-07T12:19:28;23.48;55.31
75010;DHT22;63564;46.840;18.336;2023-05-07T12:22:29;23.55;53.26
75010;DHT22;63564;46.840;18.336;2023-05-07T12:25:31;24.02;53.04
75010;DHT22;63564;46.840;18.336;2023-05-07T12:28:36;24.02;53.33
75010;DHT22;63564;46.840;18.336;2023-05-07T12:31:40;23.85;54.87
75010;DHT22;63564;46.840;18.336;2023-05-07T12:34:41;23.20;56.51
75010;DHT22;63564;46.840;18.336;2023-05-07T12:37:41;22.67;59.08
75010;DHT22;63564;46.840;18.336;2023-05-07T12:40:49;22.77;57.67
75010;DHT22;63564;46.840;18.336;2023-05-07T12:43:56;22.35;61.29
75010;DHT22;63564;46.840;18.336;2023-05-07T12:46:58;22.04;62.50
75010;DHT22;63564;46.840;18.336;2023-05-07T12:49:59;21.76;65.16
75010;DHT22;63564;46.840;18.336;2023-05-07T12:53:00;21.98;62.58
75010;DHT22;63564;46.840;18.336;2023-05-07T12:56:00;22.55;63.01
75010;DHT22;63564;46.840;18.336;2023-05-07T12:59:01;22.63;59.42
75010;DHT22;63564;46.840;18.336;2023-05-07T13:02:01;22.44;59.24
75010;DHT22;63564;46.840;18.336;2023-05-07T13:05:01;23.38;56.56
75010;DHT22;63564;46.840;18.336;2023-05-07T13:08:02;24.09;54.14
75010;DHT22;63564;46.840;18.336;2023-05-07T13:11:04;24.67;51.98
75010;DHT22;63564;46.840;18.336;2023-05-07T13:14:04;24.89;51.71
75010;DHT22;63564;46.840;18.336;2023-05-07T13:17:05;24.65;51.40
75010;DHT22;63564;46.840;18.336;2023-05-07T13:20:05;24.26;52.77
75010;DHT22;63564;46.840;18.336;2023-05-07T13:23:06;24.79;51.35
75010;DHT22;63564;46.840;18.336;2023-05-07T13:26:06;25.10;53.19
75010;DHT22;63564;46.840;18.336;2023-05-07T13:29:07;24.53;51.71
75010;DHT22;63564;46.840;18.336;2023-05-07T13:32:07;24.67;51.09
75010;DHT22;63564;46.840;18.336;2023-05-07T13:35:08;24.65;52.02
75010;DHT22;63564;46.840;18.336;2023-05-07T13:38:08;25.33;50.00
75010;DHT22;63564;46.840;18.336;2023-05-07T13:41:09;25.39;50.27
75010;DHT22;63564;46.840;18.336;2023-05-07T13:44:09;25.40;51.33
75010;DHT22;63564;46.840;18.336;2023-05-07T13:47:10;25.26;51.02
75010;DHT22;63564;46.840;18.336;2023-05-07T13:50:12;25.61;48.41
75010;DHT22;63564;46.840;18.336;2023-05-07T13:53:13;25.33;52.13
75010;DHT22;63564;46.840;18.336;2023-05-07T13:56:15;26.29;48.43
75010;DHT22;63564;46.840;18.336;2023-05-07T13:59:16;26.83;48.55
75010;DHT22;63564;46.840;18.336;2023-05-07T14:02:16;26.70;47.76
75010;DHT22;63564;46.840;18.336;2023-05-07T14:05:17;26.42;47.50
75010;DHT22;63564;46.840;18.336;2023-05-07T14:08:17;27.43;44.78
75010;DHT22;63564;46.840;18.336;2023-05-07T14:11:20;27.60;43.70
75010;DHT22;63564;46.840;18.336;2023-05-07T14:14:21;28.31;42.76
75010;DHT22;63564;46.840;18.336;2023-05-07T14:17:21;29.11;42.14
75010;DHT22;63564;46.840;18.336;2023-05-07T14:20:25;27.86;44.03
75010;DHT22;63564;46.840;18.336;2023-05-07T14:23:25;28.05;44.25
75010;DHT22;63564;46.840;18.336;2023-05-07T14:26:26;29.21;41.74
75010;DHT22;63564;46.840;18.336;2023-05-07T14:29:27;29.11;42.20
75010;DHT22;63564;46.840;18.336;2023-05-07T14:32:28;28.34;41.99
75010;DHT22;63564;46.840;18.336;2023-05-07T14:35:28;26.74;47.19
75010;DHT22;63564;46.840;18.336;2023-05-07T14:38:29;25.12;49.13
75010;DHT22;63564;46.840;18.336;2023-05-07T14:41:30;25.10;50.39
75010;DHT22;63564;46.840;18.336;2023-05-07T14:44:31;25.02;47.43
75010;DHT22;63564;46.840;18.336;2023-05-07T14:47:32;24.48;50.54
75010;DHT22;63564;46.840;18.336;2023-05-07T14:50:33;24.43;49.97
75010;DHT22;63564;46.840;18.336;2023-05-07T14:53:33;24.36;48.29
75010;DHT22;63564;46.840;18.336;2023-05-07T14:56:34;24.06;48.14
75010;DHT22;63564;46.840;18.336;2023-05-07T14:59:35;23.61;50.59
75010;DHT22;63564;46.840;18.336;2023-05-07T15:02:37;23.50;56.07
75010;DHT22;63564;46.840;18.336;2023-05-07T15:05:38;23.00;55.10
75010;DHT22;63564;46.840;18.336;2023-05-07T15:08:38;22.72;54.85
75010;DHT22;63564;46.840;18.336;2023-05-07T15:11:38;23.11;54.44
75010;DHT22;63564;46.840;18.336;2023-05-07T15:14:39;23.41;53.79
75010;DHT22;63564;46.840;18.336;2023-05-07T15:17:40;22.89;56.76
75010;DHT22;63564;46.840;18.336;2023-05-07T15:20:40;22.87;58.74
75010;DHT22;63564;46.840;18.336;2023-05-07T15:23:41;22.97;55.82
75010;DHT22;63564;46.840;18.336;2023-05-07T15:26:41;22.79;55.26
75010;DHT22;63564;46.840;18.336;2023-05-07T15:29:42;22.24;60.91
75010;DHT22;63564;46.840;18.336;2023-05-07T15:32:43;22.69;57.35
75010;DHT22;63564;46.840;18.336;2023-05-07T15:35:43;22.86;56.40
75010;DHT22;63564;46.840;18.336;2023-05-07T15:38:44;22.83;56.80
75010;DHT22;63564;46.840;18.336;2023-05-07T15:41:44;22.67;57.77
75010;DHT22;63564;46.840;18.336;2023-05-07T15:44:45;22.55;58.56
75010;DHT22;63564;46.840;18.336;2023-05-07T15:47:46;22.53;56.11
75010;DHT22;63564;46.840;18.336;2023-05-07T15:50:46;22.41;57.45
75010;DHT22;63564;46.840;18.336;2023-05-07T15:53:48;22.29;56.76
75010;DHT22;63564;46.840;18.336;2023-05-07T15:56:48;22.31;57.35
75010;DHT22;63564;46.840;18.336;2023-05-07T15:59:49;22.29;57.20
75010;DHT22;63564;46.840;18.336;2023-05-07T16:02:49;22.14;57.26
75010;DHT22;63564;46.840;18.336;2023-05-07T16:05:50;21.98;59.18
75010;DHT22;63564;46.840;18.336;2023-05-07T16:08:51;21.94;59.50
75010;DHT22;63564;46.840;18.336;2023-05-07T16:11:51;21.96;59.25
75010;DHT22;63564;46.840;18.336;2023-05-07T16:14:52;21.97;59.25
75010;DHT22;63564;46.840;18.336;2023-05-07T16:17:52;21.80;58.76
75010;DHT22;63564;46.840;18.336;2023-05-07T16:20:56;21.63;59.49
75010;DHT22;63564;46.840;18.336;2023-05-07T16:23:59;21.28;60.18
75010;DHT22;63564;46.840;18.336;2023-05-07T16:27:00;21.42;60.26
75010;DHT22;63564;46.840;18.336;2023-05-07T16:30:00;21.04;60.52
75010;DHT22;63564;46.840;18.336;2023-05-07T16:33:01;21.04;61.03
75010;DHT22;63564;46.840;18.336;2023-05-07T16:36:01;20.99;60.55
75010;DHT22;63564;46.840;18.336;2023-05-07T16:39:02;20.98;61.27
75010;DHT22;63564;46.840;18.336;2023-05-07T16:42:03;20.85;60.92
75010;DHT22;63564;46.840;18.336;2023-05-07T16:45:04;20.87;61.18
75010;DHT22;63564;46.840;18.336;2023-05-07T16:48:05;20.78;61.13
75010;DHT22;63564;46.840;18.336;2023-05-07T16:51:07;20.59;62.35
75010;DHT22;63564;46.840;18.336;2023-05-07T16:54:08;20.63;62.14
75010;DHT22;63564;46.840;18.336;2023-05-07T16:57:09;20.51;63.08
75010;DHT22;63564;46.840;18.336;2023-05-07T17:00:09;20.40;63.27
75010;DHT22;63564;46.840;18.336;2023-05-07T17:03:10;20.37;63.36
75010;DHT22;63564;46.840;18.336;2023-05-07T17:06:11;20.33;63.75
75010;DHT22;63564;46.840;18.336;2023-05-07T17:09:14;20.28;64.03
75010;DHT22;63564;46.840;18.336;2023-05-07T17:12:14;20.21;63.87
75010;DHT22;63564;46.840;18.336;2023-05-07T17:15:15;20.26;62.95
75010;DHT22;63564;46.840;18.336;2023-05-07T17:18:15;20.15;62.87
75010;DHT22;63564;46.840;18.336;2023-05-07T17:21:16;19.98;63.43
75010;DHT22;63564;46.840;18.336;2023-05-07T17:24:16;20.05;62.77
75010;DHT22;63564;46.840;18.336;2023-05-07T17:27:17;19.94;63.24
75010;DHT22;63564;46.840;18.336;2023-05-07T17:30:17;19.82;63.72
75010;DHT22;63564;46.840;18.336;2023-05-07T17:33:17;19.68;64.65
75010;DHT22;63564;46.840;18.336;2023-05-07T17:36:18;19.60;64.96
75010;DHT22;63564;46.840;18.336;2023-05-07T17:39:18;19.31;66.48
75010;DHT22;63564;46.840;18.336;2023-05-07T17:42:19;19.22;66.62
75010;DHT22;63564;46.840;18.336;2023-05-07T17:45:19;19.06;67.19
75010;DHT22;63564;46.840;18.336;2023-05-07T17:48:20;19.00;67.35
75010;DHT22;63564;46.840;18.336;2023-05-07T17:51:20;19.03;67.42
75010;DHT22;63564;46.840;18.336;2023-05-07T17:54:21;18.98;67.11
75010;DHT22;63564;46.840;18.336;2023-05-07T17:57:23;19.02;67.12
75010;DHT22;63564;46.840;18.336;2023-05-07T18:00:23;18.79;68.12
75010;DHT22;63564;46.840;18.336;2023-05-07T18:03:24;18.69;68.14
75010;DHT22;63564;46.840;18.336;2023-05-07T18:06:24;18.65;68.23
75010;DHT22;63564;46.840;18.336;2023-05-07T18:09:24;18.58;68.31
75010;DHT22;63564;46.840;18.336;2023-05-07T18:12:25;18.51;69.02
75010;DHT22;63564;46.840;18.336;2023-05-07T18:15:27;18.45;68.76
75010;DHT22;63564;46.840;18.336;2023-05-07T18:18:27;18.32;69.08
75010;DHT22;63564;46.840;18.336;2023-05-07T18:21:29;18.32;68.88
75010;DHT22;63564;46.840;18.336;2023-05-07T18:24:30;18.27;68.49
75010;DHT22;63564;46.840;18.336;2023-05-07T18:27:31;18.20;66.39
75010;DHT22;63564;46.840;18.336;2023-05-07T18:30:31;18.07;66.31
75010;DHT22;63564;46.840;18.336;2023-05-07T18:33:32;17.89;66.56
75010;DHT22;63564;46.840;18.336;2023-05-07T18:36:32;17.71;65.94
75010;DHT22;63564;46.840;18.336;2023-05-07T18:39:34;17.64;65.27
75010;DHT22;63564;46.840;18.336;2023-05-07T18:42:35;17.58;64.67
75010;DHT22;63564;46.840;18.336;2023-05-07T18:45:36;17.52;64.81
75010;DHT22;63564;46.840;18.336;2023-05-07T18:48:39;17.41;65.06
75010;DHT22;63564;46.840;18.336;2023-05-07T18:51:40;17.32;64.58
75010;DHT22;63564;46.840;18.336;2023-05-07T18:54:40;17.27;64.43
75010;DHT22;63564;46.840;18.336;2023-05-07T18:57:42;17.19;64.14
75010;DHT22;63564;46.840;18.336;2023-05-07T19:00:45;17.13;63.06